createdAt,value
2017-04-23T00:00:14.402Z,4.20
2017-04-23T00:01:13.701Z,4.20
2017-04-23T00:02:12.896Z,4.10
2017-04-23T00:03:12.881Z,4.10
2017-04-23T00:04:12.056Z,4.10
2017-04-23T00:05:11.939Z,4.10
2017-04-23T00:06:11.173Z,6.60
2017-04-23T00:07:10.375Z,4.20
2017-04-23T00:08:09.620Z,4.20
2017-04-23T00:09:08.808Z,4.20
2017-04-23T00:10:08.748Z,4.10
2017-04-23T00:11:07.908Z,4.10
2017-04-23T00:12:07.880Z,4.10
2017-04-23T00:13:07.076Z,4.20
2017-04-23T00:14:06.288Z,4.20
2017-04-23T00:15:06.153Z,4.20
2017-04-23T00:16:05.312Z,4.20
2017-04-23T00:17:04.484Z,4.20
2017-04-23T00:18:03.652Z,4.20
2017-04-23T00:19:03.540Z,4.20
2017-04-23T00:20:03.404Z,4.20
2017-04-23T00:21:02.564Z,4.20
2017-04-23T00:22:01.748Z,4.20
2017-04-23T00:23:00.897Z,4.30
2017-04-23T00:24:00.051Z,4.20
2017-04-23T00:24:59.244Z,4.20
2017-04-23T00:25:58.416Z,4.20
2017-04-23T00:26:57.599Z,4.20
2017-04-23T00:27:56.704Z,4.20
2017-04-23T00:28:55.891Z,4.20
2017-04-23T00:29:55.044Z,4.20
2017-04-23T00:30:54.243Z,4.20
2017-04-23T00:31:53.474Z,4.20
2017-04-23T00:32:52.625Z,4.20
2017-04-23T00:33:51.883Z,4.20
2017-04-23T00:34:51.081Z,4.20
2017-04-23T00:35:50.222Z,4.20
2017-04-23T00:36:49.364Z,4.20
2017-04-23T00:37:50.422Z,4.20
2017-04-23T00:38:49.572Z,4.20
2017-04-23T00:39:48.768Z,4.20
2017-04-23T00:40:47.974Z,4.20
2017-04-23T00:41:47.135Z,4.20
2017-04-23T00:42:46.303Z,4.20
2017-04-23T00:43:46.183Z,4.10
2017-04-23T00:44:45.360Z,4.20
2017-04-23T00:45:44.564Z,4.10
2017-04-23T00:46:43.707Z,4.20
2017-04-23T00:47:42.931Z,4.20
2017-04-23T00:48:42.112Z,4.10
2017-04-23T00:49:41.316Z,4.20
2017-04-23T00:50:41.324Z,4.10
2017-04-23T00:51:41.304Z,4.20
2017-04-23T00:52:40.502Z,4.20
2017-04-23T00:53:39.690Z,4.20
2017-04-23T00:54:38.848Z,4.20
2017-04-23T00:55:38.411Z,4.20
2017-04-23T00:56:37.514Z,4.20
2017-04-23T00:57:36.659Z,4.20
2017-04-23T00:58:36.576Z,4.20
2017-04-23T00:59:35.753Z,4.20
2017-04-23T01:00:35.666Z,4.20
2017-04-23T01:01:34.888Z,4.20
2017-04-23T01:02:34.097Z,4.20
2017-04-23T01:03:33.388Z,4.20
2017-04-23T01:04:32.565Z,4.20
2017-04-23T01:05:31.709Z,4.30
2017-04-23T01:06:30.884Z,4.20
2017-04-23T01:07:30.819Z,4.10
2017-04-23T01:08:30.021Z,4.20
2017-04-23T01:09:29.119Z,4.20
2017-04-23T01:10:28.331Z,4.20
2017-04-23T01:11:27.484Z,4.20
2017-04-23T01:12:26.708Z,4.20
2017-04-23T01:13:25.876Z,4.10
2017-04-23T01:14:25.011Z,4.10
2017-04-23T01:15:24.153Z,4.10
2017-04-23T01:16:23.281Z,4.20
2017-04-23T01:17:22.432Z,4.10
2017-04-23T01:18:21.676Z,4.20
2017-04-23T01:19:20.848Z,4.20
2017-04-23T01:20:19.986Z,4.20
2017-04-23T01:21:19.156Z,4.70
2017-04-23T01:22:18.316Z,4.20
2017-04-23T01:23:17.595Z,4.20
2017-04-23T01:24:16.769Z,4.20
2017-04-23T01:25:16.671Z,4.10
2017-04-23T01:26:16.547Z,4.10
2017-04-23T01:27:15.848Z,4.10
2017-04-23T01:28:15.027Z,4.10
2017-04-23T01:29:14.188Z,4.10
2017-04-23T01:30:14.148Z,4.10
2017-04-23T01:31:13.311Z,4.10
2017-04-23T01:32:12.465Z,4.10
2017-04-23T01:33:11.716Z,4.10
2017-04-23T01:34:11.028Z,4.10
2017-04-23T01:35:10.175Z,4.10
2017-04-23T01:36:10.075Z,4.00
2017-04-23T01:37:09.306Z,4.10
2017-04-23T01:38:08.476Z,4.10
2017-04-23T01:39:07.677Z,4.00
2017-04-23T01:40:06.827Z,4.00
2017-04-23T01:41:06.825Z,3.90
2017-04-23T01:42:06.025Z,4.00
2017-04-23T01:43:05.897Z,3.90
2017-04-23T01:44:05.069Z,3.90
2017-04-23T01:45:04.370Z,3.80
2017-04-23T01:46:03.544Z,3.80
2017-04-23T01:47:02.707Z,3.70
2017-04-23T01:48:01.862Z,3.70
2017-04-23T01:49:01.778Z,3.60
2017-04-23T01:50:01.022Z,3.60
2017-04-23T01:51:00.197Z,3.60
2017-04-23T01:51:59.336Z,3.60
2017-04-23T01:52:59.269Z,3.40
2017-04-23T01:53:58.447Z,3.50
2017-04-23T01:54:57.669Z,3.40
2017-04-23T01:55:56.873Z,3.40
2017-04-23T01:56:55.996Z,3.40
2017-04-23T01:57:55.233Z,3.30
2017-04-23T01:58:55.132Z,3.20
2017-04-23T01:59:54.232Z,3.30
2017-04-23T02:00:53.416Z,3.30
2017-04-23T02:01:52.598Z,3.30
2017-04-23T02:03:51.289Z,3.50
2017-04-23T02:04:50.476Z,3.50
2017-04-23T02:05:49.681Z,3.50
2017-04-23T02:06:49.624Z,3.40
2017-04-23T02:07:48.842Z,3.50
2017-04-23T02:08:47.993Z,3.50
2017-04-23T02:09:47.163Z,3.50
2017-04-23T02:10:47.064Z,3.40
2017-04-23T02:11:46.956Z,3.40
2017-04-23T02:12:46.570Z,3.40
2017-04-23T02:13:45.845Z,3.40
2017-04-23T02:14:45.825Z,3.40
2017-04-23T02:15:45.043Z,3.50
2017-04-23T02:16:44.972Z,3.50
2017-04-23T02:17:44.133Z,3.60
2017-04-23T02:18:44.101Z,3.50
2017-04-23T02:19:43.483Z,3.60
2017-04-23T02:20:42.660Z,3.60
2017-04-23T02:21:41.949Z,3.60
2017-04-23T02:22:41.328Z,3.70
2017-04-23T02:23:40.456Z,3.60
2017-04-23T02:24:39.980Z,3.70
2017-04-23T02:25:39.884Z,3.60
2017-04-23T02:26:39.858Z,3.60
2017-04-23T02:27:39.048Z,3.60
2017-04-23T02:28:38.233Z,3.60
2017-04-23T02:30:37.278Z,3.50
2017-04-23T02:31:36.453Z,3.50
2017-04-23T02:32:35.594Z,3.50
2017-04-23T02:33:34.741Z,3.50
2017-04-23T02:34:33.890Z,3.50
2017-04-23T02:35:33.827Z,3.50
2017-04-23T02:36:33.008Z,3.50
2017-04-23T02:37:32.179Z,3.50
2017-04-23T02:38:32.068Z,3.40
2017-04-23T02:39:31.253Z,3.50
2017-04-23T02:40:31.140Z,3.50
2017-04-23T02:41:30.288Z,3.50
2017-04-23T02:42:29.468Z,3.40
2017-04-23T02:43:28.621Z,3.50
2017-04-23T02:44:28.508Z,3.40
2017-04-23T02:45:27.726Z,3.50
2017-04-23T02:46:27.603Z,3.50
2017-04-23T02:47:26.788Z,3.60
2017-04-23T02:48:26.134Z,3.60
2017-04-23T02:49:25.271Z,3.60
2017-04-23T02:50:26.425Z,3.60
2017-04-23T02:51:26.336Z,3.50
2017-04-23T02:52:25.618Z,3.60
2017-04-23T02:53:25.572Z,3.60
2017-04-23T02:54:28.841Z,3.60
2017-04-23T02:55:28.523Z,3.60
2017-04-23T02:56:27.772Z,3.60
2017-04-23T02:57:27.079Z,3.60
2017-04-23T02:58:28.273Z,3.60
2017-04-23T02:59:27.581Z,3.60
2017-04-23T03:00:28.890Z,3.60
2017-04-23T03:01:28.217Z,3.60
2017-04-23T03:02:27.526Z,3.60
2017-04-23T03:03:27.553Z,3.50
2017-04-23T03:04:31.495Z,3.50
2017-04-23T03:05:34.170Z,3.60
2017-04-23T03:06:33.330Z,3.50
2017-04-23T03:07:32.729Z,3.50
2017-04-23T03:08:31.962Z,3.50
2017-04-23T03:09:31.125Z,3.50
2017-04-23T03:10:30.356Z,3.40
2017-04-23T03:11:29.956Z,3.40
2017-04-23T03:12:29.261Z,3.30
2017-04-23T03:13:29.442Z,3.40
2017-04-23T03:14:29.383Z,3.30
2017-04-23T03:15:28.632Z,3.40
2017-04-23T03:16:28.541Z,3.20
2017-04-23T03:17:27.728Z,3.30
2017-04-23T03:18:27.806Z,3.20
2017-04-23T03:19:26.940Z,3.30
2017-04-23T03:20:26.116Z,3.30
2017-04-23T03:21:25.309Z,3.30
2017-04-23T03:22:24.480Z,3.30
2017-04-23T03:23:23.621Z,3.30
2017-04-23T03:24:22.817Z,3.30
2017-04-23T03:25:21.960Z,3.30
2017-04-23T03:26:21.121Z,3.30
2017-04-23T03:27:20.972Z,3.20
2017-04-23T03:28:20.157Z,3.20
2017-04-23T03:29:19.294Z,3.20
2017-04-23T03:30:18.448Z,3.20
2017-04-23T03:31:18.367Z,3.10
2017-04-23T03:32:19.169Z,3.20
2017-04-23T03:33:18.445Z,3.20
2017-04-23T03:34:17.600Z,3.20
2017-04-23T03:35:16.740Z,3.20
2017-04-23T03:36:15.931Z,3.20
2017-04-23T03:37:15.073Z,3.20
2017-04-23T03:38:14.229Z,3.20
2017-04-23T03:39:13.390Z,3.20
2017-04-23T03:40:12.532Z,3.20
2017-04-23T03:41:11.704Z,3.20
2017-04-23T03:42:10.876Z,3.20
2017-04-23T03:43:10.919Z,3.30
2017-04-23T03:44:10.120Z,3.20
2017-04-23T03:45:09.298Z,3.30
2017-04-23T03:46:08.455Z,3.30
2017-04-23T03:47:07.623Z,3.30
2017-04-23T03:48:06.775Z,3.30
2017-04-23T03:49:05.949Z,3.30
2017-04-23T03:50:05.128Z,3.30
2017-04-23T03:51:04.316Z,3.30
2017-04-23T03:52:03.624Z,3.30
2017-04-23T03:53:02.796Z,3.30
2017-04-23T03:54:02.032Z,3.30
2017-04-23T03:55:01.952Z,3.40
2017-04-23T03:56:01.858Z,3.30
2017-04-23T03:57:01.032Z,3.40
2017-04-23T03:58:00.879Z,3.30
2017-04-23T03:59:00.067Z,3.40
2017-04-23T03:59:59.394Z,3.40
2017-04-23T04:00:58.796Z,3.40
2017-04-23T04:01:57.903Z,3.40
2017-04-23T04:02:57.873Z,3.40
2017-04-23T04:03:57.748Z,3.30
2017-04-23T04:04:56.849Z,3.30
2017-04-23T04:05:56.008Z,3.30
2017-04-23T04:06:55.160Z,3.30
2017-04-23T04:07:55.038Z,3.20
2017-04-23T04:08:54.192Z,3.20
2017-04-23T04:09:53.388Z,3.20
2017-04-23T04:10:52.564Z,3.20
2017-04-23T04:11:51.752Z,3.20
2017-04-23T04:12:50.921Z,3.10
2017-04-23T04:13:50.076Z,3.10
2017-04-23T04:14:49.230Z,3.10
2017-04-23T04:15:48.372Z,3.10
2017-04-23T04:16:52.043Z,3.00
2017-04-23T04:17:50.460Z,3.00
2017-04-23T04:18:49.604Z,3.00
2017-04-23T04:19:49.505Z,2.90
2017-04-23T04:20:48.620Z,3.00
2017-04-23T04:21:48.072Z,3.00
2017-04-23T04:22:47.224Z,3.00
2017-04-23T04:23:46.390Z,2.90
2017-04-23T04:24:45.563Z,2.90
2017-04-23T04:25:44.724Z,2.90
2017-04-23T04:26:44.609Z,2.80
2017-04-23T04:27:44.146Z,2.90
2017-04-23T04:28:43.341Z,2.90
2017-04-23T04:29:42.492Z,2.90
2017-04-23T04:30:41.751Z,2.90
2017-04-23T04:31:40.908Z,3.00
2017-04-23T04:32:40.053Z,3.10
2017-04-23T04:33:39.331Z,3.10
2017-04-23T04:34:38.463Z,3.20
2017-04-23T04:35:37.621Z,3.20
2017-04-23T04:36:38.062Z,3.20
2017-04-23T04:37:37.451Z,3.30
2017-04-23T04:38:37.363Z,3.30
2017-04-23T04:39:36.491Z,3.50
2017-04-23T04:40:35.701Z,3.60
2017-04-23T04:41:34.853Z,3.60
2017-04-23T04:42:34.593Z,3.60
2017-04-23T04:43:34.450Z,3.60
2017-04-23T04:44:33.697Z,3.70
2017-04-23T04:45:33.599Z,3.70
2017-04-23T04:46:33.488Z,3.70
2017-04-23T04:47:32.627Z,3.70
2017-04-23T04:48:31.832Z,3.70
2017-04-23T04:49:31.112Z,3.70
2017-04-23T04:50:30.664Z,3.80
2017-04-23T04:51:30.555Z,3.70
2017-04-23T04:52:29.702Z,3.70
2017-04-23T04:53:28.869Z,3.70
2017-04-23T04:54:28.043Z,3.70
2017-04-23T04:55:27.198Z,3.80
2017-04-23T04:56:26.915Z,3.70
2017-04-23T04:57:26.792Z,3.70
2017-04-23T04:58:25.937Z,3.80
2017-04-23T04:59:25.081Z,3.80
2017-04-23T05:00:25.008Z,3.80
2017-04-23T05:01:24.216Z,3.80
2017-04-23T05:02:23.553Z,3.80
2017-04-23T05:03:22.687Z,3.80
2017-04-23T05:04:21.914Z,3.80
2017-04-23T05:05:21.133Z,3.80
2017-04-23T05:06:21.055Z,3.80
2017-04-23T05:07:20.212Z,3.80
2017-04-23T05:08:20.124Z,3.80
2017-04-23T05:09:20.142Z,3.80
2017-04-23T05:10:19.686Z,3.80
2017-04-23T05:11:18.851Z,3.80
2017-04-23T05:12:18.052Z,3.80
2017-04-23T05:13:17.216Z,3.80
2017-04-23T05:14:16.381Z,3.80
2017-04-23T05:15:16.259Z,3.70
2017-04-23T05:16:15.789Z,3.80
2017-04-23T05:17:14.956Z,3.70
2017-04-23T05:18:14.857Z,3.70
2017-04-23T05:19:14.042Z,3.80
2017-04-23T05:20:14.066Z,3.80
2017-04-23T05:21:14.616Z,3.90
2017-04-23T05:22:13.787Z,3.90
2017-04-23T05:23:12.980Z,4.00
2017-04-23T05:24:12.948Z,4.00
2017-04-23T05:25:12.869Z,4.10
2017-04-23T05:26:12.166Z,4.10
2017-04-23T05:27:11.311Z,4.20
2017-04-23T05:28:10.735Z,4.30
2017-04-23T05:29:10.617Z,4.20
2017-04-23T05:30:09.772Z,4.20
2017-04-23T05:31:08.924Z,4.30
2017-04-23T05:32:08.031Z,4.30
2017-04-23T05:33:07.172Z,4.30
2017-04-23T05:34:07.710Z,4.30
2017-04-23T05:35:06.886Z,4.30
2017-04-23T05:36:06.860Z,4.30
2017-04-23T05:37:05.967Z,4.30
2017-04-23T05:38:05.876Z,4.30
2017-04-23T05:39:05.868Z,4.30
2017-04-23T05:40:05.126Z,4.40
2017-04-23T05:41:04.281Z,4.40
2017-04-23T05:42:03.516Z,4.40
2017-04-23T05:43:02.702Z,4.40
2017-04-23T05:44:01.881Z,4.40
2017-04-23T05:45:01.128Z,4.30
2017-04-23T05:46:00.216Z,4.40
2017-04-23T05:46:59.364Z,4.30
2017-04-23T05:47:58.542Z,4.30
2017-04-23T05:48:57.722Z,6.50
2017-04-23T05:49:56.893Z,4.40
2017-04-23T05:50:56.482Z,4.40
2017-04-23T05:51:55.624Z,4.50
2017-04-23T05:52:55.531Z,4.40
2017-04-23T05:53:54.693Z,4.50
2017-04-23T05:54:53.874Z,4.60
2017-04-23T05:55:53.223Z,4.60
2017-04-23T05:56:52.439Z,4.60
2017-04-23T05:57:51.607Z,4.60
2017-04-23T05:58:51.140Z,4.60
2017-04-23T05:59:50.272Z,4.60
2017-04-23T06:00:49.380Z,4.50
2017-04-23T06:01:48.540Z,4.50
2017-04-23T06:02:47.725Z,4.50
2017-04-23T06:03:46.887Z,4.50
2017-04-23T06:04:46.791Z,4.50
2017-04-23T06:05:46.663Z,4.50
2017-04-23T06:06:45.847Z,4.60
2017-04-23T06:07:45.188Z,4.70
2017-04-23T06:08:44.404Z,4.70
2017-04-23T06:09:43.724Z,4.60
2017-04-23T06:10:43.872Z,4.60
2017-04-23T06:11:43.022Z,4.60
2017-04-23T06:12:42.309Z,4.60
2017-04-23T06:13:41.475Z,4.60
2017-04-23T06:14:40.599Z,4.60
2017-04-23T06:15:39.859Z,4.70
2017-04-23T06:16:39.041Z,4.70
2017-04-23T06:17:38.190Z,4.70
2017-04-23T06:18:37.352Z,4.70
2017-04-23T06:19:37.176Z,4.70
2017-04-23T06:20:36.325Z,4.80
2017-04-23T06:21:35.493Z,4.80
2017-04-23T06:22:34.632Z,4.80
2017-04-23T06:23:34.599Z,4.80
2017-04-23T06:24:33.848Z,4.90
2017-04-23T06:25:32.977Z,5.00
2017-04-23T06:26:32.152Z,4.90
2017-04-23T06:27:31.366Z,5.00
2017-04-23T06:28:31.249Z,5.00
2017-04-23T06:29:30.475Z,5.00
2017-04-23T06:30:30.937Z,4.90
2017-04-23T06:31:31.138Z,5.00
2017-04-23T06:32:30.318Z,5.00
2017-04-23T06:33:29.484Z,5.10
2017-04-23T06:34:28.648Z,5.10
2017-04-23T06:35:27.842Z,5.20
2017-04-23T06:36:27.004Z,5.20
2017-04-23T06:37:26.197Z,5.30
2017-04-23T06:38:25.305Z,5.30
2017-04-23T06:39:25.237Z,5.20
2017-04-23T06:40:24.308Z,5.30
2017-04-23T06:41:23.460Z,5.30
2017-04-23T06:42:22.652Z,5.30
2017-04-23T06:43:22.572Z,5.30
2017-04-23T06:44:22.544Z,5.40
2017-04-23T06:45:21.720Z,5.40
2017-04-23T06:46:21.034Z,5.50
2017-04-23T06:47:20.264Z,5.50
2017-04-23T06:48:19.473Z,5.60
2017-04-23T06:49:18.638Z,5.70
2017-04-23T06:50:18.898Z,5.60
2017-04-23T06:51:18.177Z,5.80
2017-04-23T06:52:17.464Z,5.80
2017-04-23T06:53:16.958Z,5.80
2017-04-23T06:54:16.166Z,5.80
2017-04-23T06:55:16.193Z,5.80
2017-04-23T06:56:16.123Z,5.90
2017-04-23T06:57:15.474Z,6.10
2017-04-23T06:58:15.025Z,6.10
2017-04-23T06:59:14.696Z,6.20
2017-04-23T07:00:14.015Z,6.20
2017-04-23T07:01:13.147Z,6.30
2017-04-23T07:02:12.441Z,6.20
2017-04-23T07:03:12.391Z,6.10
2017-04-23T07:04:13.838Z,6.10
2017-04-23T07:05:13.189Z,6.00
2017-04-23T07:06:13.130Z,5.90
2017-04-23T07:07:12.369Z,6.00
2017-04-23T07:09:11.136Z,6.20
2017-04-23T07:10:10.580Z,6.10
2017-04-23T07:11:09.805Z,6.10
2017-04-23T07:13:22.360Z,6.10
2017-04-23T07:14:22.149Z,6.10
2017-04-23T07:15:22.079Z,6.00
2017-04-23T07:16:21.247Z,6.10
2017-04-23T07:17:21.217Z,6.00
2017-04-23T07:18:20.391Z,6.00
2017-04-23T07:19:21.844Z,5.90
2017-04-23T07:20:21.094Z,5.80
2017-04-23T07:21:20.323Z,5.80
2017-04-23T07:22:19.493Z,5.80
2017-04-23T07:23:18.706Z,5.90
2017-04-23T07:24:17.945Z,5.90
2017-04-23T07:25:17.107Z,5.90
2017-04-23T07:26:17.234Z,5.90
2017-04-23T07:27:16.483Z,6.00
2017-04-23T07:28:18.702Z,6.00
2017-04-23T07:29:17.955Z,6.00
2017-04-23T07:30:17.225Z,6.10
2017-04-23T07:31:17.133Z,6.00
2017-04-23T07:32:17.112Z,6.00
2017-04-23T07:33:19.271Z,6.10
2017-04-23T07:34:18.496Z,6.10
2017-04-23T07:35:17.903Z,6.10
2017-04-23T07:36:17.160Z,6.10
2017-04-23T07:37:16.744Z,6.10
2017-04-23T07:38:15.900Z,6.10
2017-04-23T07:39:15.083Z,6.10
2017-04-23T07:40:14.328Z,6.00
2017-04-23T07:41:13.688Z,6.00
2017-04-23T07:43:13.122Z,6.10
2017-04-23T07:44:13.161Z,6.20
2017-04-23T07:45:12.357Z,6.30
2017-04-23T07:46:11.611Z,6.20
2017-04-23T07:47:10.806Z,6.30
2017-04-23T07:48:10.004Z,6.40
2017-04-23T07:49:09.188Z,6.40
2017-04-23T07:50:08.488Z,6.50
2017-04-23T07:51:07.712Z,6.60
2017-04-23T07:52:06.884Z,6.60
2017-04-23T07:53:06.085Z,6.50
2017-04-23T07:54:05.269Z,6.40
2017-04-23T07:55:04.407Z,6.50
2017-04-23T07:56:03.568Z,6.60
2017-04-23T07:57:02.770Z,6.80
2017-04-23T07:58:01.931Z,6.90
2017-04-23T07:59:01.112Z,7.00
2017-04-23T08:00:00.297Z,7.10
2017-04-23T08:00:59.491Z,7.20
2017-04-23T08:01:58.652Z,7.20
2017-04-23T08:02:57.821Z,7.20
2017-04-23T08:03:56.985Z,7.30
2017-04-23T08:04:56.186Z,7.40
2017-04-23T08:05:55.371Z,7.40
2017-04-23T08:06:54.740Z,7.30
2017-04-23T08:07:54.681Z,7.20
2017-04-23T08:08:53.820Z,7.30
2017-04-23T08:09:53.784Z,7.40
2017-04-23T08:10:52.960Z,7.40
2017-04-23T08:11:52.148Z,7.50
2017-04-23T08:12:51.329Z,7.50
2017-04-23T08:13:50.560Z,7.50
2017-04-23T08:14:49.788Z,7.50
2017-04-23T08:15:49.111Z,7.50
2017-04-23T08:16:48.284Z,7.40
2017-04-23T08:17:47.588Z,7.10
2017-04-23T08:18:46.781Z,7.10
2017-04-23T08:19:45.951Z,7.10
2017-04-23T08:20:45.148Z,7.10
2017-04-23T08:21:44.299Z,7.20
2017-04-23T08:22:43.481Z,7.30
2017-04-23T08:23:42.986Z,7.40
2017-04-23T08:24:42.204Z,7.60
2017-04-23T08:25:41.632Z,7.70
2017-04-23T08:26:40.803Z,7.70
2017-04-23T08:27:39.945Z,7.60
2017-04-23T08:28:39.055Z,7.60
2017-04-23T08:29:38.285Z,7.60
2017-04-23T08:30:38.267Z,7.60
2017-04-23T08:31:37.473Z,7.70
2017-04-23T08:32:36.665Z,7.80
2017-04-23T08:33:36.141Z,7.90
2017-04-23T08:34:35.445Z,8.00
2017-04-23T08:35:35.366Z,7.90
2017-04-23T08:36:35.225Z,7.90
2017-04-23T08:38:33.819Z,7.90
2017-04-23T08:39:33.019Z,7.80
2017-04-23T08:40:32.290Z,7.80
2017-04-23T08:41:31.537Z,7.80
2017-04-23T08:42:30.937Z,7.80
2017-04-23T08:43:30.137Z,7.90
2017-04-23T08:44:29.304Z,8.00
2017-04-23T08:45:28.865Z,8.10
2017-04-23T08:46:28.116Z,8.10
2017-04-23T08:47:27.297Z,8.10
2017-04-23T08:48:26.405Z,8.10
2017-04-23T08:49:25.620Z,8.20
2017-04-23T08:50:25.528Z,8.20
2017-04-23T08:51:24.711Z,8.10
2017-04-23T08:52:24.573Z,8.10
2017-04-23T08:53:23.804Z,8.20
2017-04-23T08:54:23.778Z,8.40
2017-04-23T08:55:23.295Z,8.70
2017-04-23T08:56:23.196Z,8.90
2017-04-23T08:57:23.168Z,8.90
2017-04-23T08:58:22.347Z,8.50
2017-04-23T08:59:21.545Z,9.10
2017-04-23T09:00:20.736Z,9.00
2017-04-23T09:01:19.887Z,8.60
2017-04-23T09:02:19.083Z,8.40
2017-04-23T09:03:18.353Z,8.30
2017-04-23T09:04:17.499Z,8.10
2017-04-23T09:05:16.725Z,8.10
2017-04-23T09:06:15.996Z,7.90
2017-04-23T09:07:15.927Z,7.80
2017-04-23T09:08:15.058Z,7.80
2017-04-23T09:09:14.297Z,7.80
2017-04-23T09:10:13.576Z,7.80
2017-04-23T09:11:13.996Z,7.60
2017-04-23T09:12:13.196Z,7.50
2017-04-23T09:13:12.364Z,7.50
2017-04-23T09:14:11.653Z,7.50
2017-04-23T09:15:10.833Z,7.60
2017-04-23T09:16:10.841Z,7.60
2017-04-23T09:17:10.103Z,7.70
2017-04-23T09:18:09.324Z,7.90
2017-04-23T09:19:09.316Z,7.90
2017-04-23T09:20:08.590Z,8.10
2017-04-23T09:21:07.932Z,8.00
2017-04-23T09:22:07.156Z,8.00
2017-04-23T09:23:06.372Z,8.00
2017-04-23T09:24:06.299Z,8.00
2017-04-23T09:25:05.544Z,8.00
2017-04-23T09:26:04.692Z,7.80
2017-04-23T09:27:03.909Z,7.80
2017-04-23T09:28:03.081Z,7.80
2017-04-23T09:29:02.394Z,7.90
2017-04-23T09:30:01.577Z,7.90
2017-04-23T09:31:00.792Z,7.90
2017-04-23T09:32:01.180Z,7.90
2017-04-23T09:33:00.340Z,7.90
2017-04-23T09:33:59.521Z,7.90
2017-04-23T09:34:58.751Z,7.90
2017-04-23T09:35:58.065Z,7.90
2017-04-23T09:36:58.043Z,7.90
2017-04-23T09:37:57.589Z,7.90
2017-04-23T09:38:56.781Z,7.90
2017-04-23T09:39:56.013Z,7.90
2017-04-23T09:40:55.276Z,8.00
2017-04-23T09:41:54.530Z,8.20
2017-04-23T09:42:53.732Z,8.30
2017-04-23T09:43:53.366Z,8.60
2017-04-23T09:44:52.548Z,8.70
2017-04-23T09:45:51.788Z,8.90
2017-04-23T09:46:51.746Z,9.00
2017-04-23T09:47:50.940Z,9.20
2017-04-23T09:48:50.113Z,9.10
2017-04-23T09:49:49.501Z,9.10
2017-04-23T09:50:48.650Z,9.00
2017-04-23T09:51:47.860Z,9.00
2017-04-23T09:52:47.046Z,9.00
2017-04-23T09:53:47.082Z,9.10
2017-04-23T09:54:46.388Z,9.00
2017-04-23T09:55:45.692Z,8.90
2017-04-23T09:56:45.071Z,7.30
2017-04-23T09:57:45.460Z,9.00
2017-04-23T09:58:44.673Z,9.10
2017-04-23T09:59:43.941Z,9.00
2017-04-23T10:00:43.167Z,9.10
2017-04-23T10:01:42.324Z,9.00
2017-04-23T10:02:41.539Z,8.90
2017-04-23T10:03:42.374Z,8.50
2017-04-23T10:04:41.609Z,8.50
2017-04-23T10:05:40.858Z,8.50
2017-04-23T10:06:40.160Z,8.70
2017-04-23T10:07:39.315Z,8.80
2017-04-23T10:08:39.187Z,8.90
2017-04-23T10:09:38.524Z,9.00
2017-04-23T10:10:38.464Z,9.00
2017-04-23T10:11:37.693Z,9.00
2017-04-23T10:12:36.979Z,9.10
2017-04-23T10:13:36.217Z,9.10
2017-04-23T10:14:35.549Z,9.10
2017-04-23T10:15:34.838Z,9.30
2017-04-23T10:16:34.036Z,9.40
2017-04-23T10:17:33.278Z,9.50
2017-04-23T10:18:32.483Z,9.60
2017-04-23T10:19:31.785Z,9.50
2017-04-23T10:20:30.989Z,9.60
2017-04-23T10:21:30.517Z,9.90
2017-04-23T10:22:29.723Z,10.20
2017-04-23T10:23:28.928Z,10.20
2017-04-23T10:24:28.219Z,10.10
2017-04-23T10:25:27.490Z,10.20
2017-04-23T10:26:26.644Z,10.20
2017-04-23T10:27:26.617Z,10.50
2017-04-23T10:28:25.815Z,10.70
2017-04-23T10:29:25.085Z,10.80
2017-04-23T10:30:24.291Z,10.80
2017-04-23T10:31:23.678Z,10.60
2017-04-23T10:33:22.675Z,10.60
2017-04-23T10:34:21.873Z,10.40
2017-04-23T10:35:21.798Z,9.80
2017-04-23T10:36:21.681Z,9.20
2017-04-23T10:37:21.031Z,8.80
2017-04-23T10:38:21.141Z,8.40
2017-04-23T10:39:20.346Z,8.10
2017-04-23T10:40:19.633Z,8.00
2017-04-23T10:41:18.826Z,7.90
2017-04-23T10:42:18.167Z,7.90
2017-04-23T10:43:17.517Z,7.80
2017-04-23T10:44:16.698Z,7.90
2017-04-23T10:45:15.905Z,8.00
2017-04-23T10:46:15.105Z,8.00
2017-04-23T10:47:14.347Z,7.70
2017-04-23T10:48:13.547Z,7.70
2017-04-23T10:49:12.784Z,7.70
2017-04-23T10:50:11.997Z,7.60
2017-04-23T10:51:11.268Z,7.50
2017-04-23T10:52:10.423Z,7.40
2017-04-23T10:53:10.407Z,7.30
2017-04-23T10:54:09.612Z,7.20
2017-04-23T10:55:09.559Z,7.00
2017-04-23T10:56:08.784Z,6.90
2017-04-23T10:57:08.030Z,6.70
2017-04-23T10:58:07.243Z,6.60
2017-04-23T10:59:07.137Z,6.40
2017-04-23T11:00:06.324Z,6.40
2017-04-23T11:01:05.477Z,6.40
2017-04-23T11:02:04.935Z,6.40
2017-04-23T11:03:04.117Z,6.30
2017-04-23T11:04:03.325Z,6.30
2017-04-23T11:05:03.252Z,6.20
2017-04-23T11:06:02.787Z,6.20
2017-04-23T11:07:01.943Z,6.40
2017-04-23T11:08:01.136Z,6.60
2017-04-23T11:09:00.472Z,6.70
2017-04-23T11:09:59.668Z,6.90
2017-04-23T11:10:58.797Z,6.90
2017-04-23T11:11:58.043Z,7.20
2017-04-23T11:12:57.281Z,7.30
2017-04-23T11:13:56.522Z,7.40
2017-04-23T11:14:55.721Z,7.60
2017-04-23T11:15:55.624Z,7.70
2017-04-23T11:16:55.629Z,7.80
2017-04-23T11:17:55.578Z,8.00
2017-04-23T11:18:54.849Z,8.10
2017-04-23T11:19:54.113Z,8.10
2017-04-23T11:20:54.181Z,8.00
2017-04-23T11:21:53.394Z,8.30
2017-04-23T11:22:52.592Z,8.50
2017-04-23T11:23:52.533Z,8.90
2017-04-23T11:24:51.805Z,9.20
2017-04-23T11:25:50.973Z,9.40
2017-04-23T11:26:50.093Z,9.60
2017-04-23T11:27:49.389Z,9.60
2017-04-23T11:28:48.803Z,9.50
2017-04-23T11:29:48.794Z,9.50
2017-04-23T11:30:48.146Z,9.60
2017-04-23T11:31:47.356Z,9.70
2017-04-23T11:32:46.610Z,9.70
2017-04-23T11:33:45.801Z,9.80
2017-04-23T11:34:45.680Z,9.80
2017-04-23T11:35:45.116Z,9.80
2017-04-23T11:36:44.314Z,9.90
2017-04-23T11:37:43.497Z,9.90
2017-04-23T11:38:42.737Z,10.30
2017-04-23T11:39:41.947Z,10.50
2017-04-23T11:40:41.179Z,10.40
2017-04-23T11:41:40.744Z,10.50
2017-04-23T11:42:40.700Z,10.70
2017-04-23T11:43:40.033Z,10.80
2017-04-23T11:44:40.086Z,10.40
2017-04-23T11:45:39.339Z,10.10
2017-04-23T11:46:39.255Z,10.00
2017-04-23T11:47:38.566Z,9.90
2017-04-23T11:48:37.855Z,9.80
2017-04-23T11:49:37.077Z,9.80
2017-04-23T11:50:36.281Z,9.90
2017-04-23T11:51:35.580Z,10.00
2017-04-23T11:52:35.013Z,10.20
2017-04-23T11:53:34.209Z,10.10
2017-04-23T11:54:33.406Z,10.00
2017-04-23T11:55:32.597Z,9.70
2017-04-23T11:56:31.769Z,9.60
2017-04-23T11:57:31.013Z,9.50
2017-04-23T11:58:31.515Z,9.50
2017-04-23T11:59:30.750Z,9.50
2017-04-23T12:00:29.980Z,9.40
2017-04-23T12:01:29.549Z,9.30
2017-04-23T12:02:28.681Z,9.30
2017-04-23T12:03:27.865Z,9.40
2017-04-23T12:04:27.809Z,9.30
2017-04-23T12:05:27.024Z,9.50
2017-04-23T12:06:26.305Z,9.70
2017-04-23T12:07:25.530Z,10.20
2017-04-23T12:08:24.777Z,10.50
2017-04-23T12:09:24.265Z,10.70
2017-04-23T12:10:23.525Z,11.00
2017-04-23T12:11:23.598Z,11.10
2017-04-23T12:12:22.819Z,10.90
2017-04-23T12:13:22.049Z,10.50
2017-04-23T12:14:21.325Z,10.40
2017-04-23T12:15:20.517Z,10.00
2017-04-23T12:16:19.868Z,9.70
2017-04-23T12:17:19.781Z,9.50
2017-04-23T12:18:19.481Z,9.40
2017-04-23T12:19:19.392Z,9.20
2017-04-23T12:20:18.620Z,9.20
2017-04-23T12:21:17.775Z,9.20
2017-04-23T12:22:16.967Z,9.30
2017-04-23T12:23:16.186Z,9.70
2017-04-23T12:24:15.409Z,10.20
2017-04-23T12:25:14.692Z,10.60
2017-04-23T12:26:13.901Z,11.20
2017-04-23T12:27:13.957Z,11.20
2017-04-23T12:28:13.318Z,11.10
2017-04-23T12:29:12.941Z,11.00
2017-04-23T12:30:12.589Z,10.80
2017-04-23T12:31:12.920Z,10.60
2017-04-23T12:32:12.125Z,10.50
2017-04-23T12:33:11.326Z,10.50
2017-04-23T12:34:11.321Z,10.20
2017-04-23T12:35:10.648Z,10.00
2017-04-23T12:36:09.993Z,9.90
2017-04-23T12:37:09.981Z,9.90
2017-04-23T12:38:09.236Z,10.40
2017-04-23T12:39:09.166Z,10.90
2017-04-23T12:40:09.089Z,11.70
2017-04-23T12:41:08.380Z,12.40
2017-04-23T12:42:07.616Z,12.70
2017-04-23T12:43:07.144Z,12.70
2017-04-23T12:44:07.092Z,13.10
2017-04-23T12:45:06.294Z,13.60
2017-04-23T12:46:05.594Z,13.80
2017-04-23T12:47:04.843Z,13.90
2017-04-23T12:48:04.130Z,14.20
2017-04-23T12:49:03.343Z,14.00
2017-04-23T12:50:02.512Z,13.90
2017-04-23T12:51:01.694Z,13.70
2017-04-23T12:52:00.943Z,13.20
2017-04-23T12:53:00.269Z,12.70
2017-04-23T12:54:01.654Z,12.20
2017-04-23T12:55:02.690Z,11.70
2017-04-23T12:56:01.901Z,11.20
2017-04-23T12:57:01.161Z,10.90
2017-04-23T12:58:00.507Z,10.80
2017-04-23T12:58:59.766Z,11.00
2017-04-23T12:59:58.978Z,11.70
2017-04-23T13:00:58.284Z,12.30
2017-04-23T13:01:57.534Z,12.70
2017-04-23T13:02:57.471Z,12.30
2017-04-23T13:03:56.740Z,12.00
2017-04-23T13:04:55.889Z,11.30
2017-04-23T13:05:55.119Z,11.60
2017-04-23T13:06:54.351Z,9.40
2017-04-23T13:07:53.664Z,11.40
2017-04-23T13:08:52.929Z,11.30
2017-04-23T13:09:52.154Z,11.30
2017-04-23T13:10:58.858Z,11.10
2017-04-23T13:11:58.084Z,11.10
2017-04-23T13:12:58.240Z,11.10
2017-04-23T13:13:57.428Z,11.20
2017-04-23T13:14:56.670Z,11.50